sensor_id;sensor_type;location;lat;lon;timestamp;P1;durP1;ratioP1;P2;durP2;ratioP2
15482;SDS011;7843;50.330;7.312;2022-07-24T00:02:07;5.47;;;4.60;;
15482;SDS011;7843;50.330;7.312;2022-07-24T00:04:34;8.98;;;5.20;;
15482;SDS011;7843;50.330;7.312;2022-07-24T00:07:01;8.30;;;4.75;;
15482;SDS011;7843;50.330;7.312;2022-07-24T00:09:28;5.93;;;5.00;;
15482;SDS011;7843;50.330;7.312;2022-07-24T00:11:55;5.15;;;4.65;;
15482;SDS011;7843;50.330;7.312;2022-07-24T00:14:21;7.70;;;4.82;;
15482;SDS011;7843;50.330;7.312;2022-07-24T00:16:48;5.38;;;4.85;;
15482;SDS011;7843;50.330;7.312;2022-07-24T00:19:15;5.82;;;4.80;;
15482;SDS011;7843;50.330;7.312;2022-07-24T00:21:42;6.47;;;4.73;;
15482;SDS011;7843;50.330;7.312;2022-07-24T00:24:08;7.75;;;4.75;;
15482;SDS011;7843;50.330;7.312;2022-07-24T00:26:35;6.32;;;4.93;;
15482;SDS011;7843;50.330;7.312;2022-07-24T00:29:02;6.15;;;4.75;;
15482;SDS011;7843;50.330;7.312;2022-07-24T00:31:30;5.90;;;5.07;;
15482;SDS011;7843;50.330;7.312;2022-07-24T00:33:57;7.20;;;5.10;;
15482;SDS011;7843;50.330;7.312;2022-07-24T00:36:24;7.00;;;4.90;;
15482;SDS011;7843;50.330;7.312;2022-07-24T00:38:50;5.95;;;4.85;;
15482;SDS011;7843;50.330;7.312;2022-07-24T00:41:17;7.72;;;5.03;;
15482;SDS011;7843;50.330;7.312;2022-07-24T00:46:34;7.40;;;5.25;;
15482;SDS011;7843;50.330;7.312;2022-07-24T00:49:06;6.85;;;4.60;;
15482;SDS011;7843;50.330;7.312;2022-07-24T00:51:34;8.05;;;5.03;;
15482;SDS011;7843;50.330;7.312;2022-07-24T00:54:04;6.90;;;5.38;;
15482;SDS011;7843;50.330;7.312;2022-07-24T00:56:33;7.15;;;4.93;;
15482;SDS011;7843;50.330;7.312;2022-07-24T00:59:01;7.18;;;5.57;;
15482;SDS011;7843;50.330;7.312;2022-07-24T01:01:29;6.25;;;5.05;;
15482;SDS011;7843;50.330;7.312;2022-07-24T01:03:57;7.13;;;5.22;;
15482;SDS011;7843;50.330;7.312;2022-07-24T01:06:24;6.50;;;5.00;;
15482;SDS011;7843;50.330;7.312;2022-07-24T01:08:51;6.97;;;5.47;;
15482;SDS011;7843;50.330;7.312;2022-07-24T01:11:18;6.65;;;5.50;;
15482;SDS011;7843;50.330;7.312;2022-07-24T01:13:49;8.07;;;5.60;;
15482;SDS011;7843;50.330;7.312;2022-07-24T01:16:16;10.38;;;5.70;;
15482;SDS011;7843;50.330;7.312;2022-07-24T01:18:44;6.72;;;5.40;;
15482;SDS011;7843;50.330;7.312;2022-07-24T01:21:11;7.40;;;5.20;;
15482;SDS011;7843;50.330;7.312;2022-07-24T01:23:37;8.18;;;5.50;;
15482;SDS011;7843;50.330;7.312;2022-07-24T01:26:07;6.03;;;5.20;;
15482;SDS011;7843;50.330;7.312;2022-07-24T01:28:35;6.57;;;5.50;;
15482;SDS011;7843;50.330;7.312;2022-07-24T01:31:02;7.63;;;5.15;;
15482;SDS011;7843;50.330;7.312;2022-07-24T01:33:29;8.38;;;5.45;;
15482;SDS011;7843;50.330;7.312;2022-07-24T01:35:56;8.07;;;5.93;;
15482;SDS011;7843;50.330;7.312;2022-07-24T01:38:23;7.72;;;5.43;;
15482;SDS011;7843;50.330;7.312;2022-07-24T01:40:50;6.10;;;5.20;;
15482;SDS011;7843;50.330;7.312;2022-07-24T01:43:17;6.45;;;5.25;;
15482;SDS011;7843;50.330;7.312;2022-07-24T01:45:44;5.85;;;5.03;;
15482;SDS011;7843;50.330;7.312;2022-07-24T01:48:11;6.78;;;5.25;;
15482;SDS011;7843;50.330;7.312;2022-07-24T01:50:38;6.40;;;4.97;;
15482;SDS011;7843;50.330;7.312;2022-07-24T01:53:04;8.18;;;5.50;;
15482;SDS011;7843;50.330;7.312;2022-07-24T01:55:31;6.97;;;5.30;;
15482;SDS011;7843;50.330;7.312;2022-07-24T01:57:58;7.10;;;5.60;;
15482;SDS011;7843;50.330;7.312;2022-07-24T02:00:25;6.33;;;5.47;;
15482;SDS011;7843;50.330;7.312;2022-07-24T02:02:52;7.03;;;5.10;;
15482;SDS011;7843;50.330;7.312;2022-07-24T02:05:18;6.18;;;5.15;;
15482;SDS011;7843;50.330;7.312;2022-07-24T02:07:45;6.78;;;5.38;;
15482;SDS011;7843;50.330;7.312;2022-07-24T02:10:25;6.73;;;5.50;;
15482;SDS011;7843;50.330;7.312;2022-07-24T02:12:52;6.55;;;5.63;;
15482;SDS011;7843;50.330;7.312;2022-07-24T02:15:20;7.13;;;5.80;;
15482;SDS011;7843;50.330;7.312;2022-07-24T02:17:51;7.13;;;5.82;;
15482;SDS011;7843;50.330;7.312;2022-07-24T02:20:19;8.32;;;5.68;;
15482;SDS011;7843;50.330;7.312;2022-07-24T02:22:46;8.43;;;5.93;;
15482;SDS011;7843;50.330;7.312;2022-07-24T02:25:13;6.88;;;5.60;;
15482;SDS011;7843;50.330;7.312;2022-07-24T02:27:40;6.65;;;5.65;;
15482;SDS011;7843;50.330;7.312;2022-07-24T02:30:12;8.43;;;5.60;;
15482;SDS011;7843;50.330;7.312;2022-07-24T02:32:40;7.20;;;5.78;;
15482;SDS011;7843;50.330;7.312;2022-07-24T02:35:07;6.55;;;5.40;;
15482;SDS011;7843;50.330;7.312;2022-07-24T02:37:35;7.22;;;5.50;;
15482;SDS011;7843;50.330;7.312;2022-07-24T02:40:03;8.48;;;5.68;;
15482;SDS011;7843;50.330;7.312;2022-07-24T02:42:31;5.93;;;5.30;;
15482;SDS011;7843;50.330;7.312;2022-07-24T02:44:58;7.13;;;5.53;;
15482;SDS011;7843;50.330;7.312;2022-07-24T02:47:25;7.27;;;5.50;;
15482;SDS011;7843;50.330;7.312;2022-07-24T02:49:52;6.70;;;5.47;;
15482;SDS011;7843;50.330;7.312;2022-07-24T02:52:18;6.18;;;5.50;;
15482;SDS011;7843;50.330;7.312;2022-07-24T02:54:45;8.50;;;6.05;;
15482;SDS011;7843;50.330;7.312;2022-07-24T02:57:12;6.60;;;5.20;;
15482;SDS011;7843;50.330;7.312;2022-07-24T02:59:39;6.97;;;5.63;;
15482;SDS011;7843;50.330;7.312;2022-07-24T03:02:05;7.13;;;5.85;;
15482;SDS011;7843;50.330;7.312;2022-07-24T03:04:32;6.65;;;5.60;;
15482;SDS011;7843;50.330;7.312;2022-07-24T03:06:59;7.85;;;5.70;;
15482;SDS011;7843;50.330;7.312;2022-07-24T03:09:26;7.70;;;6.00;;
15482;SDS011;7843;50.330;7.312;2022-07-24T03:11:52;7.13;;;5.40;;
15482;SDS011;7843;50.330;7.312;2022-07-24T03:14:19;7.10;;;5.63;;
15482;SDS011;7843;50.330;7.312;2022-07-24T03:16:46;7.35;;;5.95;;
15482;SDS011;7843;50.330;7.312;2022-07-24T03:19:12;8.37;;;5.77;;
15482;SDS011;7843;50.330;7.312;2022-07-24T03:21:39;7.65;;;5.80;;
15482;SDS011;7843;50.330;7.312;2022-07-24T03:24:14;7.18;;;5.60;;
15482;SDS011;7843;50.330;7.312;2022-07-24T03:26:41;7.75;;;5.82;;
15482;SDS011;7843;50.330;7.312;2022-07-24T03:29:08;7.25;;;5.53;;
15482;SDS011;7843;50.330;7.312;2022-07-24T03:31:34;8.07;;;5.50;;
15482;SDS011;7843;50.330;7.312;2022-07-24T03:34:01;7.38;;;5.90;;
15482;SDS011;7843;50.330;7.312;2022-07-24T03:36:28;7.03;;;5.70;;
15482;SDS011;7843;50.330;7.312;2022-07-24T03:38:55;7.53;;;5.70;;
15482;SDS011;7843;50.330;7.312;2022-07-24T03:41:21;7.07;;;5.25;;
15482;SDS011;7843;50.330;7.312;2022-07-24T03:43:48;6.10;;;5.30;;
15482;SDS011;7843;50.330;7.312;2022-07-24T03:46:15;7.55;;;5.97;;
15482;SDS011;7843;50.330;7.312;2022-07-24T03:48:42;6.30;;;5.70;;
15482;SDS011;7843;50.330;7.312;2022-07-24T03:51:08;6.45;;;5.68;;
15482;SDS011;7843;50.330;7.312;2022-07-24T03:53:35;6.20;;;5.55;;
15482;SDS011;7843;50.330;7.312;2022-07-24T03:56:06;7.43;;;5.50;;
15482;SDS011;7843;50.330;7.312;2022-07-24T03:58:34;6.23;;;5.60;;
15482;SDS011;7843;50.330;7.312;2022-07-24T04:01:04;7.40;;;5.72;;
15482;SDS011;7843;50.330;7.312;2022-07-24T04:03:30;8.20;;;5.60;;
15482;SDS011;7843;50.330;7.312;2022-07-24T04:05:59;6.57;;;5.97;;
15482;SDS011;7843;50.330;7.312;2022-07-24T04:08:30;6.85;;;6.10;;
15482;SDS011;7843;50.330;7.312;2022-07-24T04:10:57;7.05;;;5.63;;
15482;SDS011;7843;50.330;7.312;2022-07-24T04:13:24;7.15;;;5.75;;
15482;SDS011;7843;50.330;7.312;2022-07-24T04:15:53;6.60;;;5.80;;
15482;SDS011;7843;50.330;7.312;2022-07-24T04:18:20;7.07;;;5.83;;
15482;SDS011;7843;50.330;7.312;2022-07-24T04:20:47;6.50;;;5.78;;
15482;SDS011;7843;50.330;7.312;2022-07-24T04:23:14;6.13;;;5.53;;
15482;SDS011;7843;50.330;7.312;2022-07-24T04:25:42;6.95;;;5.70;;
15482;SDS011;7843;50.330;7.312;2022-07-24T04:28:08;7.43;;;5.97;;
15482;SDS011;7843;50.330;7.312;2022-07-24T04:30:35;6.78;;;5.90;;
15482;SDS011;7843;50.330;7.312;2022-07-24T04:33:02;6.82;;;6.13;;
15482;SDS011;7843;50.330;7.312;2022-07-24T04:35:29;6.30;;;5.70;;
15482;SDS011;7843;50.330;7.312;2022-07-24T04:37:55;7.15;;;5.25;;
15482;SDS011;7843;50.330;7.312;2022-07-24T04:40:22;6.50;;;5.55;;
15482;SDS011;7843;50.330;7.312;2022-07-24T04:42:49;7.00;;;5.35;;
15482;SDS011;7843;50.330;7.312;2022-07-24T04:45:16;7.68;;;5.38;;
15482;SDS011;7843;50.330;7.312;2022-07-24T04:47:42;8.18;;;5.70;;
15482;SDS011;7843;50.330;7.312;2022-07-24T04:50:09;7.03;;;5.47;;
15482;SDS011;7843;50.330;7.312;2022-07-24T04:52:36;6.57;;;5.82;;
15482;SDS011;7843;50.330;7.312;2022-07-24T04:55:03;6.95;;;5.57;;
15482;SDS011;7843;50.330;7.312;2022-07-24T04:57:30;7.15;;;5.28;;
15482;SDS011;7843;50.330;7.312;2022-07-24T04:59:57;6.22;;;5.57;;
15482;SDS011;7843;50.330;7.312;2022-07-24T05:02:23;7.20;;;5.40;;
15482;SDS011;7843;50.330;7.312;2022-07-24T05:04:50;6.10;;;5.35;;
15482;SDS011;7843;50.330;7.312;2022-07-24T05:07:17;5.72;;;5.18;;
15482;SDS011;7843;50.330;7.312;2022-07-24T05:09:44;7.13;;;5.53;;
15482;SDS011;7843;50.330;7.312;2022-07-24T05:12:11;8.32;;;5.68;;
15482;SDS011;7843;50.330;7.312;2022-07-24T05:14:37;9.20;;;6.25;;
15482;SDS011;7843;50.330;7.312;2022-07-24T05:17:04;8.68;;;6.40;;
15482;SDS011;7843;50.330;7.312;2022-07-24T05:19:31;8.73;;;6.25;;
15482;SDS011;7843;50.330;7.312;2022-07-24T05:21:57;6.57;;;5.90;;
15482;SDS011;7843;50.330;7.312;2022-07-24T05:24:24;6.82;;;5.53;;
15482;SDS011;7843;50.330;7.312;2022-07-24T05:26:51;6.55;;;5.85;;
15482;SDS011;7843;50.330;7.312;2022-07-24T05:29:18;8.90;;;6.05;;
15482;SDS011;7843;50.330;7.312;2022-07-24T05:31:45;7.00;;;6.30;;
15482;SDS011;7843;50.330;7.312;2022-07-24T05:34:12;8.17;;;6.80;;
15482;SDS011;7843;50.330;7.312;2022-07-24T05:36:39;8.02;;;6.28;;
15482;SDS011;7843;50.330;7.312;2022-07-24T05:39:06;8.02;;;6.38;;
15482;SDS011;7843;50.330;7.312;2022-07-24T05:41:33;8.23;;;6.13;;
15482;SDS011;7843;50.330;7.312;2022-07-24T05:44:00;8.05;;;6.50;;
15482;SDS011;7843;50.330;7.312;2022-07-24T05:46:26;7.68;;;6.00;;
15482;SDS011;7843;50.330;7.312;2022-07-24T05:48:53;7.07;;;5.70;;
15482;SDS011;7843;50.330;7.312;2022-07-24T05:51:20;6.60;;;5.90;;
15482;SDS011;7843;50.330;7.312;2022-07-24T05:53:47;7.05;;;6.28;;
15482;SDS011;7843;50.330;7.312;2022-07-24T05:56:13;6.78;;;6.05;;
15482;SDS011;7843;50.330;7.312;2022-07-24T05:58:40;8.00;;;5.70;;
15482;SDS011;7843;50.330;7.312;2022-07-24T06:01:07;8.07;;;5.68;;
15482;SDS011;7843;50.330;7.312;2022-07-24T06:03:35;7.25;;;6.22;;
15482;SDS011;7843;50.330;7.312;2022-07-24T06:06:05;7.23;;;5.80;;
15482;SDS011;7843;50.330;7.312;2022-07-24T06:08:35;8.10;;;5.93;;
15482;SDS011;7843;50.330;7.312;2022-07-24T06:11:02;7.35;;;5.97;;
15482;SDS011;7843;50.330;7.312;2022-07-24T06:13:28;6.60;;;5.68;;
15482;SDS011;7843;50.330;7.312;2022-07-24T06:15:55;6.27;;;5.47;;
15482;SDS011;7843;50.330;7.312;2022-07-24T06:18:22;7.38;;;6.03;;
15482;SDS011;7843;50.330;7.312;2022-07-24T06:20:49;7.45;;;6.00;;
15482;SDS011;7843;50.330;7.312;2022-07-24T06:23:15;7.55;;;6.10;;
15482;SDS011;7843;50.330;7.312;2022-07-24T06:25:42;7.30;;;6.00;;
15482;SDS011;7843;50.330;7.312;2022-07-24T06:28:09;6.57;;;5.88;;
15482;SDS011;7843;50.330;7.312;2022-07-24T06:30:36;10.20;;;6.35;;
15482;SDS011;7843;50.330;7.312;2022-07-24T06:33:02;8.03;;;5.93;;
15482;SDS011;7843;50.330;7.312;2022-07-24T06:35:29;7.13;;;5.97;;
15482;SDS011;7843;50.330;7.312;2022-07-24T06:37:59;6.90;;;5.90;;
15482;SDS011;7843;50.330;7.312;2022-07-24T06:40:28;7.00;;;5.88;;
15482;SDS011;7843;50.330;7.312;2022-07-24T06:42:55;8.25;;;5.90;;
15482;SDS011;7843;50.330;7.312;2022-07-24T06:45:22;6.32;;;5.57;;
15482;SDS011;7843;50.330;7.312;2022-07-24T06:47:49;6.47;;;5.80;;
15482;SDS011;7843;50.330;7.312;2022-07-24T06:50:15;7.22;;;5.53;;
15482;SDS011;7843;50.330;7.312;2022-07-24T06:52:42;6.50;;;5.78;;
15482;SDS011;7843;50.330;7.312;2022-07-24T06:55:09;7.20;;;5.57;;
15482;SDS011;7843;50.330;7.312;2022-07-24T06:57:36;7.20;;;5.60;;
15482;SDS011;7843;50.330;7.312;2022-07-24T07:00:04;6.50;;;5.20;;
15482;SDS011;7843;50.330;7.312;2022-07-24T07:02:33;8.57;;;6.00;;
15482;SDS011;7843;50.330;7.312;2022-07-24T07:05:00;8.13;;;5.75;;
15482;SDS011;7843;50.330;7.312;2022-07-24T07:07:27;6.30;;;5.50;;
15482;SDS011;7843;50.330;7.312;2022-07-24T07:09:54;5.83;;;5.13;;
15482;SDS011;7843;50.330;7.312;2022-07-24T07:12:21;6.90;;;5.38;;
15482;SDS011;7843;50.330;7.312;2022-07-24T07:14:48;6.65;;;5.25;;
15482;SDS011;7843;50.330;7.312;2022-07-24T07:17:14;6.05;;;5.50;;
15482;SDS011;7843;50.330;7.312;2022-07-24T07:19:42;5.95;;;4.63;;
15482;SDS011;7843;50.330;7.312;2022-07-24T07:22:09;6.95;;;4.78;;
15482;SDS011;7843;50.330;7.312;2022-07-24T07:24:37;5.85;;;4.75;;
15482;SDS011;7843;50.330;7.312;2022-07-24T07:27:03;5.90;;;4.70;;
15482;SDS011;7843;50.330;7.312;2022-07-24T07:29:30;5.18;;;4.68;;
15482;SDS011;7843;50.330;7.312;2022-07-24T07:31:57;5.03;;;4.53;;
15482;SDS011;7843;50.330;7.312;2022-07-24T07:34:24;7.43;;;4.30;;
15482;SDS011;7843;50.330;7.312;2022-07-24T07:36:50;5.97;;;4.47;;
15482;SDS011;7843;50.330;7.312;2022-07-24T07:39:17;5.10;;;4.60;;
15482;SDS011;7843;50.330;7.312;2022-07-24T07:41:44;5.15;;;4.30;;
15482;SDS011;7843;50.330;7.312;2022-07-24T07:44:10;5.10;;;4.15;;
15482;SDS011;7843;50.330;7.312;2022-07-24T07:46:37;5.00;;;4.50;;
15482;SDS011;7843;50.330;7.312;2022-07-24T07:49:04;5.68;;;4.57;;
15482;SDS011;7843;50.330;7.312;2022-07-24T07:51:31;4.35;;;3.78;;
15482;SDS011;7843;50.330;7.312;2022-07-24T07:53:58;5.13;;;3.95;;
15482;SDS011;7843;50.330;7.312;2022-07-24T07:56:24;5.30;;;3.92;;
15482;SDS011;7843;50.330;7.312;2022-07-24T07:58:51;4.88;;;4.47;;
15482;SDS011;7843;50.330;7.312;2022-07-24T08:01:19;6.00;;;3.83;;
15482;SDS011;7843;50.330;7.312;2022-07-24T08:03:45;4.65;;;3.97;;
15482;SDS011;7843;50.330;7.312;2022-07-24T08:06:12;6.32;;;3.78;;
15482;SDS011;7843;50.330;7.312;2022-07-24T08:08:39;4.87;;;3.60;;
15482;SDS011;7843;50.330;7.312;2022-07-24T08:11:06;5.43;;;3.47;;
15482;SDS011;7843;50.330;7.312;2022-07-24T08:13:33;4.32;;;3.58;;
15482;SDS011;7843;50.330;7.312;2022-07-24T08:15:59;3.73;;;3.23;;
15482;SDS011;7843;50.330;7.312;2022-07-24T08:18:26;4.22;;;3.72;;
15482;SDS011;7843;50.330;7.312;2022-07-24T08:20:53;5.47;;;3.60;;
15482;SDS011;7843;50.330;7.312;2022-07-24T08:23:20;5.30;;;3.72;;
15482;SDS011;7843;50.330;7.312;2022-07-24T08:25:46;3.90;;;3.50;;
15482;SDS011;7843;50.330;7.312;2022-07-24T08:28:13;5.20;;;3.73;;
15482;SDS011;7843;50.330;7.312;2022-07-24T08:30:40;4.22;;;3.40;;
15482;SDS011;7843;50.330;7.312;2022-07-24T08:33:07;5.03;;;3.60;;
15482;SDS011;7843;50.330;7.312;2022-07-24T08:35:33;4.57;;;3.63;;
15482;SDS011;7843;50.330;7.312;2022-07-24T08:38:00;4.60;;;3.33;;
15482;SDS011;7843;50.330;7.312;2022-07-24T08:40:31;4.37;;;3.30;;
15482;SDS011;7843;50.330;7.312;2022-07-24T08:43:02;4.60;;;3.40;;
15482;SDS011;7843;50.330;7.312;2022-07-24T08:45:30;4.00;;;3.20;;
15482;SDS011;7843;50.330;7.312;2022-07-24T08:48:04;4.88;;;3.47;;
15482;SDS011;7843;50.330;7.312;2022-07-24T08:50:33;4.78;;;3.20;;
15482;SDS011;7843;50.330;7.312;2022-07-24T08:53:02;4.97;;;3.30;;
15482;SDS011;7843;50.330;7.312;2022-07-24T08:55:30;3.88;;;3.28;;
15482;SDS011;7843;50.330;7.312;2022-07-24T08:57:57;4.38;;;3.38;;
15482;SDS011;7843;50.330;7.312;2022-07-24T09:00:28;4.72;;;3.28;;
15482;SDS011;7843;50.330;7.312;2022-07-24T09:02:56;3.40;;;3.00;;
15482;SDS011;7843;50.330;7.312;2022-07-24T09:05:22;4.28;;;3.35;;
15482;SDS011;7843;50.330;7.312;2022-07-24T09:07:50;4.65;;;3.45;;
15482;SDS011;7843;50.330;7.312;2022-07-24T09:10:31;4.38;;;3.17;;
15482;SDS011;7843;50.330;7.312;2022-07-24T09:12:59;4.25;;;3.10;;
15482;SDS011;7843;50.330;7.312;2022-07-24T09:15:43;4.40;;;3.30;;
15482;SDS011;7843;50.330;7.312;2022-07-24T09:18:24;4.55;;;3.42;;
15482;SDS011;7843;50.330;7.312;2022-07-24T09:20:52;5.55;;;3.10;;
15482;SDS011;7843;50.330;7.312;2022-07-24T09:23:19;4.03;;;3.20;;
15482;SDS011;7843;50.330;7.312;2022-07-24T09:25:52;3.70;;;3.28;;
15482;SDS011;7843;50.330;7.312;2022-07-24T09:28:20;4.97;;;3.10;;
15482;SDS011;7843;50.330;7.312;2022-07-24T09:30:48;3.85;;;3.42;;
15482;SDS011;7843;50.330;7.312;2022-07-24T09:33:16;3.47;;;3.17;;
15482;SDS011;7843;50.330;7.312;2022-07-24T09:35:48;3.78;;;3.30;;
15482;SDS011;7843;50.330;7.312;2022-07-24T09:38:21;3.53;;;3.00;;
15482;SDS011;7843;50.330;7.312;2022-07-24T09:40:50;3.33;;;2.97;;
15482;SDS011;7843;50.330;7.312;2022-07-24T09:43:25;4.38;;;3.25;;
15482;SDS011;7843;50.330;7.312;2022-07-24T09:48:32;4.63;;;3.05;;
15482;SDS011;7843;50.330;7.312;2022-07-24T09:53:37;3.38;;;3.08;;
15482;SDS011;7843;50.330;7.312;2022-07-24T09:58:47;6.30;;;3.22;;
15482;SDS011;7843;50.330;7.312;2022-07-24T10:01:19;4.25;;;3.60;;
15482;SDS011;7843;50.330;7.312;2022-07-24T10:03:48;5.07;;;3.38;;
15482;SDS011;7843;50.330;7.312;2022-07-24T10:06:18;3.60;;;3.00;;
15482;SDS011;7843;50.330;7.312;2022-07-24T10:08:48;4.05;;;3.10;;
15482;SDS011;7843;50.330;7.312;2022-07-24T10:11:17;4.78;;;3.08;;
15482;SDS011;7843;50.330;7.312;2022-07-24T10:13:45;3.80;;;2.80;;
15482;SDS011;7843;50.330;7.312;2022-07-24T10:21:14;4.60;;;3.15;;
15482;SDS011;7843;50.330;7.312;2022-07-24T10:24:04;3.70;;;2.92;;
15482;SDS011;7843;50.330;7.312;2022-07-24T10:26:41;3.78;;;3.15;;
15482;SDS011;7843;50.330;7.312;2022-07-24T10:29:13;3.50;;;2.90;;
15482;SDS011;7843;50.330;7.312;2022-07-24T10:31:49;3.40;;;3.10;;
15482;SDS011;7843;50.330;7.312;2022-07-24T10:45:32;4.82;;;3.00;;
15482;SDS011;7843;50.330;7.312;2022-07-24T10:53:25;3.85;;;2.80;;
15482;SDS011;7843;50.330;7.312;2022-07-24T10:59:01;4.05;;;3.00;;
15482;SDS011;7843;50.330;7.312;2022-07-24T11:04:02;5.65;;;3.17;;
15482;SDS011;7843;50.330;7.312;2022-07-24T11:09:24;3.58;;;2.63;;
15482;SDS011;7843;50.330;7.312;2022-07-24T11:14:22;4.10;;;3.30;;
15482;SDS011;7843;50.330;7.312;2022-07-24T11:20:06;3.45;;;2.95;;
15482;SDS011;7843;50.330;7.312;2022-07-24T11:22:52;3.53;;;2.70;;
15482;SDS011;7843;50.330;7.312;2022-07-24T11:25:24;6.35;;;3.00;;
15482;SDS011;7843;50.330;7.312;2022-07-24T11:30:25;3.83;;;3.03;;
15482;SDS011;7843;50.330;7.312;2022-07-24T11:32:54;2.85;;;2.55;;
15482;SDS011;7843;50.330;7.312;2022-07-24T11:35:31;3.88;;;2.90;;
15482;SDS011;7843;50.330;7.312;2022-07-24T11:38:00;3.85;;;2.97;;
15482;SDS011;7843;50.330;7.312;2022-07-24T11:40:29;4.78;;;2.92;;
15482;SDS011;7843;50.330;7.312;2022-07-24T11:42:58;3.20;;;2.80;;
15482;SDS011;7843;50.330;7.312;2022-07-24T11:45:30;4.07;;;2.70;;
15482;SDS011;7843;50.330;7.312;2022-07-24T11:47:57;4.18;;;2.90;;
15482;SDS011;7843;50.330;7.312;2022-07-24T11:50:25;3.85;;;2.88;;
15482;SDS011;7843;50.330;7.312;2022-07-24T11:52:52;3.17;;;2.50;;
15482;SDS011;7843;50.330;7.312;2022-07-24T11:55:23;3.15;;;2.58;;
15482;SDS011;7843;50.330;7.312;2022-07-24T11:57:54;2.85;;;2.55;;
15482;SDS011;7843;50.330;7.312;2022-07-24T12:00:40;2.85;;;2.50;;
15482;SDS011;7843;50.330;7.312;2022-07-24T12:03:07;2.60;;;2.40;;
15482;SDS011;7843;50.330;7.312;2022-07-24T12:05:36;2.55;;;2.33;;
15482;SDS011;7843;50.330;7.312;2022-07-24T12:08:14;3.47;;;2.50;;
15482;SDS011;7843;50.330;7.312;2022-07-24T12:10:56;3.00;;;2.60;;
15482;SDS011;7843;50.330;7.312;2022-07-24T12:13:24;3.20;;;2.53;;
15482;SDS011;7843;50.330;7.312;2022-07-24T12:15:51;3.33;;;2.40;;
15482;SDS011;7843;50.330;7.312;2022-07-24T12:18:18;4.53;;;2.50;;
15482;SDS011;7843;50.330;7.312;2022-07-24T12:20:49;3.95;;;2.53;;
15482;SDS011;7843;50.330;7.312;2022-07-24T12:23:16;3.70;;;2.38;;
15482;SDS011;7843;50.330;7.312;2022-07-24T12:25:45;2.35;;;2.13;;
15482;SDS011;7843;50.330;7.312;2022-07-24T12:28:12;2.63;;;2.10;;
15482;SDS011;7843;50.330;7.312;2022-07-24T12:30:46;2.27;;;2.07;;
15482;SDS011;7843;50.330;7.312;2022-07-24T12:38:25;2.77;;;2.30;;
15482;SDS011;7843;50.330;7.312;2022-07-24T12:41:00;2.50;;;2.30;;
15482;SDS011;7843;50.330;7.312;2022-07-24T12:43:30;3.40;;;2.45;;
15482;SDS011;7843;50.330;7.312;2022-07-24T12:46:04;2.28;;;2.08;;
15482;SDS011;7843;50.330;7.312;2022-07-24T12:48:32;2.30;;;1.88;;
15482;SDS011;7843;50.330;7.312;2022-07-24T12:51:00;3.63;;;2.42;;
15482;SDS011;7843;50.330;7.312;2022-07-24T12:53:39;2.42;;;2.20;;
15482;SDS011;7843;50.330;7.312;2022-07-24T12:56:08;2.72;;;2.08;;
15482;SDS011;7843;50.330;7.312;2022-07-24T12:58:49;2.60;;;2.08;;
15482;SDS011;7843;50.330;7.312;2022-07-24T13:01:17;2.38;;;1.83;;
15482;SDS011;7843;50.330;7.312;2022-07-24T13:03:54;2.43;;;1.90;;
15482;SDS011;7843;50.330;7.312;2022-07-24T13:06:30;2.58;;;1.83;;
15482;SDS011;7843;50.330;7.312;2022-07-24T13:09:02;5.45;;;2.20;;
15482;SDS011;7843;50.330;7.312;2022-07-24T13:11:30;2.53;;;2.30;;
15482;SDS011;7843;50.330;7.312;2022-07-24T13:13:57;2.60;;;2.20;;
15482;SDS011;7843;50.330;7.312;2022-07-24T13:16:29;3.08;;;2.20;;
15482;SDS011;7843;50.330;7.312;2022-07-24T13:19:00;2.40;;;2.20;;
15482;SDS011;7843;50.330;7.312;2022-07-24T13:21:30;3.15;;;2.33;;
15482;SDS011;7843;50.330;7.312;2022-07-24T13:23:59;2.33;;;2.10;;
15482;SDS011;7843;50.330;7.312;2022-07-24T13:26:26;3.50;;;2.00;;
15482;SDS011;7843;50.330;7.312;2022-07-24T13:28:53;3.38;;;2.10;;
15482;SDS011;7843;50.330;7.312;2022-07-24T13:31:20;3.20;;;2.00;;
15482;SDS011;7843;50.330;7.312;2022-07-24T13:33:47;3.85;;;2.08;;
15482;SDS011;7843;50.330;7.312;2022-07-24T13:36:15;2.58;;;2.17;;
15482;SDS011;7843;50.330;7.312;2022-07-24T13:38:42;2.92;;;2.30;;
15482;SDS011;7843;50.330;7.312;2022-07-24T13:41:09;3.13;;;2.30;;
15482;SDS011;7843;50.330;7.312;2022-07-24T13:43:37;3.35;;;2.05;;
15482;SDS011;7843;50.330;7.312;2022-07-24T13:46:04;2.22;;;2.00;;
15482;SDS011;7843;50.330;7.312;2022-07-24T13:48:31;2.13;;;1.90;;
15482;SDS011;7843;50.330;7.312;2022-07-24T13:50:58;2.90;;;1.95;;
15482;SDS011;7843;50.330;7.312;2022-07-24T13:53:24;2.10;;;1.80;;
15482;SDS011;7843;50.330;7.312;2022-07-24T13:55:51;2.08;;;1.80;;
15482;SDS011;7843;50.330;7.312;2022-07-24T13:58:18;2.05;;;1.70;;
15482;SDS011;7843;50.330;7.312;2022-07-24T14:00:44;3.40;;;2.00;;
15482;SDS011;7843;50.330;7.312;2022-07-24T14:03:11;8.95;;;2.45;;
15482;SDS011;7843;50.330;7.312;2022-07-24T14:05:52;2.80;;;1.83;;
15482;SDS011;7843;50.330;7.312;2022-07-24T14:08:19;1.80;;;1.70;;
15482;SDS011;7843;50.330;7.312;2022-07-24T14:10:46;2.53;;;1.75;;
15482;SDS011;7843;50.330;7.312;2022-07-24T14:13:12;1.80;;;1.55;;
15482;SDS011;7843;50.330;7.312;2022-07-24T14:15:39;1.85;;;1.65;;
15482;SDS011;7843;50.330;7.312;2022-07-24T14:18:06;2.15;;;1.58;;
15482;SDS011;7843;50.330;7.312;2022-07-24T14:20:33;3.10;;;1.70;;
15482;SDS011;7843;50.330;7.312;2022-07-24T14:23:00;1.95;;;1.70;;
15482;SDS011;7843;50.330;7.312;2022-07-24T14:25:26;2.22;;;1.95;;
15482;SDS011;7843;50.330;7.312;2022-07-24T14:27:53;1.80;;;1.70;;
15482;SDS011;7843;50.330;7.312;2022-07-24T14:30:20;1.70;;;1.60;;
15482;SDS011;7843;50.330;7.312;2022-07-24T14:32:47;2.30;;;2.10;;
15482;SDS011;7843;50.330;7.312;2022-07-24T14:35:13;2.00;;;1.80;;
15482;SDS011;7843;50.330;7.312;2022-07-24T14:37:40;2.23;;;1.93;;
15482;SDS011;7843;50.330;7.312;2022-07-24T14:40:07;2.55;;;2.10;;
15482;SDS011;7843;50.330;7.312;2022-07-24T14:42:35;2.28;;;1.80;;
15482;SDS011;7843;50.330;7.312;2022-07-24T14:45:02;2.33;;;1.80;;
15482;SDS011;7843;50.330;7.312;2022-07-24T14:47:30;1.92;;;1.83;;
15482;SDS011;7843;50.330;7.312;2022-07-24T14:49:57;2.42;;;1.95;;
15482;SDS011;7843;50.330;7.312;2022-07-24T14:52:24;9.70;;;2.60;;
15482;SDS011;7843;50.330;7.312;2022-07-24T14:54:52;6.40;;;2.33;;
15482;SDS011;7843;50.330;7.312;2022-07-24T14:57:19;7.70;;;2.60;;
15482;SDS011;7843;50.330;7.312;2022-07-24T14:59:45;2.35;;;1.90;;
15482;SDS011;7843;50.330;7.312;2022-07-24T15:02:12;3.03;;;1.95;;
15482;SDS011;7843;50.330;7.312;2022-07-24T15:04:39;3.60;;;1.90;;
15482;SDS011;7843;50.330;7.312;2022-07-24T15:07:08;2.60;;;1.90;;
15482;SDS011;7843;50.330;7.312;2022-07-24T15:09:34;2.63;;;2.20;;
15482;SDS011;7843;50.330;7.312;2022-07-24T15:12:01;2.83;;;1.70;;
15482;SDS011;7843;50.330;7.312;2022-07-24T15:14:28;2.28;;;1.98;;
15482;SDS011;7843;50.330;7.312;2022-07-24T15:16:55;2.00;;;1.80;;
15482;SDS011;7843;50.330;7.312;2022-07-24T15:19:21;1.85;;;1.70;;
15482;SDS011;7843;50.330;7.312;2022-07-24T15:21:48;2.47;;;2.10;;
15482;SDS011;7843;50.330;7.312;2022-07-24T15:24:15;5.15;;;2.10;;
15482;SDS011;7843;50.330;7.312;2022-07-24T15:26:42;3.28;;;2.08;;
15482;SDS011;7843;50.330;7.312;2022-07-24T15:29:08;2.97;;;2.17;;
15482;SDS011;7843;50.330;7.312;2022-07-24T15:31:35;3.17;;;2.28;;
15482;SDS011;7843;50.330;7.312;2022-07-24T15:34:02;2.42;;;2.10;;
15482;SDS011;7843;50.330;7.312;2022-07-24T15:36:30;2.53;;;1.92;;
15482;SDS011;7843;50.330;7.312;2022-07-24T15:38:57;2.33;;;2.13;;
15482;SDS011;7843;50.330;7.312;2022-07-24T15:41:24;2.17;;;1.98;;
15482;SDS011;7843;50.330;7.312;2022-07-24T15:43:50;2.92;;;2.13;;
15482;SDS011;7843;50.330;7.312;2022-07-24T15:46:17;3.30;;;2.13;;
15482;SDS011;7843;50.330;7.312;2022-07-24T15:48:44;2.70;;;2.13;;
15482;SDS011;7843;50.330;7.312;2022-07-24T15:51:10;2.75;;;2.17;;
15482;SDS011;7843;50.330;7.312;2022-07-24T15:53:37;2.85;;;2.00;;
15482;SDS011;7843;50.330;7.312;2022-07-24T15:56:04;2.50;;;2.17;;
15482;SDS011;7843;50.330;7.312;2022-07-24T15:58:31;5.10;;;2.20;;
15482;SDS011;7843;50.330;7.312;2022-07-24T16:00:58;3.80;;;2.30;;